sensor_id;sensor_type;location;lat;lon;timestamp;P1;durP1;ratioP1;P2;durP2;ratioP2
23129;SDS011;11734;51.046;13.778;2023-04-25T00:00:20;2.53;;;2.33;;
23129;SDS011;11734;51.046;13.778;2023-04-25T00:02:48;2.63;;;2.43;;
23129;SDS011;11734;51.046;13.778;2023-04-25T00:05:15;2.70;;;2.50;;
23129;SDS011;11734;51.046;13.778;2023-04-25T00:07:42;2.47;;;2.27;;
23129;SDS011;11734;51.046;13.778;2023-04-25T00:10:09;2.67;;;2.47;;
23129;SDS011;11734;51.046;13.778;2023-04-25T00:12:37;2.63;;;2.10;;
23129;SDS011;11734;51.046;13.778;2023-04-25T00:15:06;2.60;;;2.40;;
23129;SDS011;11734;51.046;13.778;2023-04-25T00:17:33;2.47;;;2.13;;
23129;SDS011;11734;51.046;13.778;2023-04-25T00:20:01;2.63;;;2.43;;
23129;SDS011;11734;51.046;13.778;2023-04-25T00:22:31;2.50;;;2.00;;
23129;SDS011;11734;51.046;13.778;2023-04-25T00:25:00;2.67;;;2.47;;
23129;SDS011;11734;51.046;13.778;2023-04-25T00:27:27;2.30;;;2.00;;
23129;SDS011;11734;51.046;13.778;2023-04-25T00:29:54;2.60;;;2.40;;
23129;SDS011;11734;51.046;13.778;2023-04-25T00:32:21;3.27;;;2.53;;
23129;SDS011;11734;51.046;13.778;2023-04-25T00:34:48;2.77;;;2.47;;
23129;SDS011;11734;51.046;13.778;2023-04-25T00:37:15;2.60;;;2.40;;
23129;SDS011;11734;51.046;13.778;2023-04-25T00:39:42;2.30;;;2.10;;
23129;SDS011;11734;51.046;13.778;2023-04-25T00:42:09;3.60;;;2.20;;
23129;SDS011;11734;51.046;13.778;2023-04-25T00:44:40;2.67;;;2.47;;
23129;SDS011;11734;51.046;13.778;2023-04-25T00:47:08;2.50;;;2.20;;
23129;SDS011;11734;51.046;13.778;2023-04-25T00:49:36;2.67;;;2.47;;
23129;SDS011;11734;51.046;13.778;2023-04-25T00:52:03;3.73;;;2.40;;
23129;SDS011;11734;51.046;13.778;2023-04-25T00:54:31;2.47;;;2.27;;
23129;SDS011;11734;51.046;13.778;2023-04-25T00:56:58;3.40;;;2.90;;
23129;SDS011;11734;51.046;13.778;2023-04-25T00:59:27;3.77;;;2.90;;
23129;SDS011;11734;51.046;13.778;2023-04-25T01:01:56;4.67;;;2.93;;
23129;SDS011;11734;51.046;13.778;2023-04-25T01:04:24;3.43;;;2.80;;
23129;SDS011;11734;51.046;13.778;2023-04-25T01:06:53;3.13;;;2.83;;
23129;SDS011;11734;51.046;13.778;2023-04-25T01:09:20;3.47;;;3.03;;
23129;SDS011;11734;51.046;13.778;2023-04-25T01:11:48;2.83;;;2.63;;
23129;SDS011;11734;51.046;13.778;2023-04-25T01:14:16;3.37;;;2.80;;
23129;SDS011;11734;51.046;13.778;2023-04-25T01:16:43;4.00;;;3.10;;
23129;SDS011;11734;51.046;13.778;2023-04-25T01:19:11;3.20;;;2.83;;
23129;SDS011;11734;51.046;13.778;2023-04-25T01:21:38;2.93;;;2.63;;
23129;SDS011;11734;51.046;13.778;2023-04-25T01:24:06;3.90;;;3.03;;
23129;SDS011;11734;51.046;13.778;2023-04-25T01:26:36;4.30;;;3.10;;
23129;SDS011;11734;51.046;13.778;2023-04-25T01:29:04;4.13;;;2.60;;
23129;SDS011;11734;51.046;13.778;2023-04-25T01:31:34;4.03;;;3.10;;
23129;SDS011;11734;51.046;13.778;2023-04-25T01:34:02;3.00;;;2.70;;
23129;SDS011;11734;51.046;13.778;2023-04-25T01:36:28;3.60;;;3.03;;
23129;SDS011;11734;51.046;13.778;2023-04-25T01:38:56;3.80;;;2.80;;
23129;SDS011;11734;51.046;13.778;2023-04-25T01:41:23;3.40;;;3.10;;
23129;SDS011;11734;51.046;13.778;2023-04-25T01:43:51;3.73;;;3.37;;
23129;SDS011;11734;51.046;13.778;2023-04-25T01:46:18;3.43;;;2.90;;
23129;SDS011;11734;51.046;13.778;2023-04-25T01:48:45;3.60;;;3.17;;
23129;SDS011;11734;51.046;13.778;2023-04-25T01:51:12;2.80;;;2.60;;
23129;SDS011;11734;51.046;13.778;2023-04-25T01:53:39;3.33;;;3.00;;
23129;SDS011;11734;51.046;13.778;2023-04-25T01:56:07;5.43;;;2.90;;
23129;SDS011;11734;51.046;13.778;2023-04-25T01:58:34;4.10;;;3.27;;
23129;SDS011;11734;51.046;13.778;2023-04-25T02:01:07;4.60;;;3.07;;
23129;SDS011;11734;51.046;13.778;2023-04-25T02:03:41;3.27;;;2.97;;
23129;SDS011;11734;51.046;13.778;2023-04-25T02:06:18;3.37;;;2.83;;
23129;SDS011;11734;51.046;13.778;2023-04-25T02:08:47;3.07;;;2.73;;
23129;SDS011;11734;51.046;13.778;2023-04-25T02:11:15;3.87;;;2.73;;
23129;SDS011;11734;51.046;13.778;2023-04-25T02:14:02;3.97;;;3.00;;
23129;SDS011;11734;51.046;13.778;2023-04-25T02:16:52;3.57;;;2.50;;
23129;SDS011;11734;51.046;13.778;2023-04-25T02:19:19;3.47;;;3.17;;
23129;SDS011;11734;51.046;13.778;2023-04-25T02:21:46;3.20;;;2.83;;
23129;SDS011;11734;51.046;13.778;2023-04-25T02:24:13;3.90;;;2.97;;
23129;SDS011;11734;51.046;13.778;2023-04-25T02:26:39;3.20;;;2.60;;
23129;SDS011;11734;51.046;13.778;2023-04-25T02:29:07;3.77;;;3.20;;
23129;SDS011;11734;51.046;13.778;2023-04-25T02:31:35;3.97;;;2.73;;
23129;SDS011;11734;51.046;13.778;2023-04-25T02:34:02;4.87;;;3.63;;
23129;SDS011;11734;51.046;13.778;2023-04-25T02:36:29;3.93;;;3.30;;
23129;SDS011;11734;51.046;13.778;2023-04-25T02:38:58;4.03;;;2.93;;
23129;SDS011;11734;51.046;13.778;2023-04-25T02:41:26;4.23;;;3.00;;
23129;SDS011;11734;51.046;13.778;2023-04-25T02:43:54;3.07;;;2.77;;
23129;SDS011;11734;51.046;13.778;2023-04-25T02:46:21;3.63;;;3.00;;
23129;SDS011;11734;51.046;13.778;2023-04-25T02:49:04;3.47;;;3.13;;
23129;SDS011;11734;51.046;13.778;2023-04-25T02:51:33;4.17;;;3.37;;
23129;SDS011;11734;51.046;13.778;2023-04-25T02:54:00;4.63;;;3.00;;
23129;SDS011;11734;51.046;13.778;2023-04-25T02:56:27;3.83;;;2.90;;
23129;SDS011;11734;51.046;13.778;2023-04-25T02:58:54;4.70;;;3.27;;
23129;SDS011;11734;51.046;13.778;2023-04-25T03:01:22;4.70;;;3.07;;
23129;SDS011;11734;51.046;13.778;2023-04-25T03:03:49;3.20;;;2.90;;
23129;SDS011;11734;51.046;13.778;2023-04-25T03:06:16;2.87;;;2.53;;
23129;SDS011;11734;51.046;13.778;2023-04-25T03:08:44;3.63;;;3.23;;
23129;SDS011;11734;51.046;13.778;2023-04-25T03:11:11;3.67;;;3.20;;
23129;SDS011;11734;51.046;13.778;2023-04-25T03:13:41;4.00;;;3.03;;
23129;SDS011;11734;51.046;13.778;2023-04-25T03:16:09;3.77;;;3.30;;
23129;SDS011;11734;51.046;13.778;2023-04-25T03:18:37;4.70;;;3.30;;
23129;SDS011;11734;51.046;13.778;2023-04-25T03:21:04;3.70;;;3.23;;
23129;SDS011;11734;51.046;13.778;2023-04-25T03:23:32;4.17;;;3.50;;
23129;SDS011;11734;51.046;13.778;2023-04-25T03:25:59;3.87;;;3.23;;
23129;SDS011;11734;51.046;13.778;2023-04-25T03:28:27;5.10;;;3.43;;
23129;SDS011;11734;51.046;13.778;2023-04-25T03:30:56;3.87;;;2.90;;
23129;SDS011;11734;51.046;13.778;2023-04-25T03:33:23;5.17;;;3.67;;
23129;SDS011;11734;51.046;13.778;2023-04-25T03:35:51;4.93;;;3.43;;
23129;SDS011;11734;51.046;13.778;2023-04-25T03:38:19;3.90;;;3.07;;
23129;SDS011;11734;51.046;13.778;2023-04-25T03:40:46;5.10;;;3.17;;
23129;SDS011;11734;51.046;13.778;2023-04-25T03:43:21;4.60;;;3.40;;
23129;SDS011;11734;51.046;13.778;2023-04-25T03:45:54;3.80;;;3.50;;
23129;SDS011;11734;51.046;13.778;2023-04-25T03:48:22;4.30;;;3.47;;
23129;SDS011;11734;51.046;13.778;2023-04-25T03:50:53;3.70;;;3.40;;
23129;SDS011;11734;51.046;13.778;2023-04-25T03:53:22;4.50;;;3.63;;
23129;SDS011;11734;51.046;13.778;2023-04-25T03:56:15;3.67;;;3.37;;
23129;SDS011;11734;51.046;13.778;2023-04-25T03:58:45;3.37;;;3.07;;
23129;SDS011;11734;51.046;13.778;2023-04-25T04:01:14;4.20;;;3.43;;
23129;SDS011;11734;51.046;13.778;2023-04-25T04:03:42;3.70;;;3.30;;
23129;SDS011;11734;51.046;13.778;2023-04-25T04:06:10;4.90;;;3.60;;
23129;SDS011;11734;51.046;13.778;2023-04-25T04:08:41;4.50;;;3.97;;
23129;SDS011;11734;51.046;13.778;2023-04-25T04:11:10;5.77;;;3.40;;
23129;SDS011;11734;51.046;13.778;2023-04-25T04:13:37;5.13;;;3.80;;
23129;SDS011;11734;51.046;13.778;2023-04-25T04:16:05;4.47;;;3.77;;
23129;SDS011;11734;51.046;13.778;2023-04-25T04:18:33;4.90;;;3.90;;
23129;SDS011;11734;51.046;13.778;2023-04-25T04:21:01;4.87;;;3.40;;
23129;SDS011;11734;51.046;13.778;2023-04-25T04:23:31;4.33;;;3.17;;
23129;SDS011;11734;51.046;13.778;2023-04-25T04:25:58;5.30;;;4.03;;
23129;SDS011;11734;51.046;13.778;2023-04-25T04:28:37;5.73;;;3.80;;
23129;SDS011;11734;51.046;13.778;2023-04-25T04:31:17;4.40;;;3.70;;
23129;SDS011;11734;51.046;13.778;2023-04-25T04:33:46;4.40;;;3.70;;
23129;SDS011;11734;51.046;13.778;2023-04-25T04:36:14;5.20;;;3.63;;
23129;SDS011;11734;51.046;13.778;2023-04-25T04:38:42;3.83;;;3.43;;
23129;SDS011;11734;51.046;13.778;2023-04-25T04:41:18;5.30;;;3.50;;
23129;SDS011;11734;51.046;13.778;2023-04-25T04:43:53;6.13;;;4.27;;
23129;SDS011;11734;51.046;13.778;2023-04-25T04:46:51;4.97;;;3.53;;
23129;SDS011;11734;51.046;13.778;2023-04-25T04:49:39;4.87;;;3.60;;
23129;SDS011;11734;51.046;13.778;2023-04-25T04:52:28;4.73;;;4.03;;
23129;SDS011;11734;51.046;13.778;2023-04-25T04:55:18;4.67;;;3.80;;
23129;SDS011;11734;51.046;13.778;2023-04-25T04:58:09;5.00;;;3.63;;
23129;SDS011;11734;51.046;13.778;2023-04-25T05:00:51;4.90;;;3.93;;
23129;SDS011;11734;51.046;13.778;2023-04-25T05:03:37;5.20;;;4.00;;
23129;SDS011;11734;51.046;13.778;2023-04-25T05:06:33;3.93;;;3.60;;
23129;SDS011;11734;51.046;13.778;2023-04-25T05:09:19;4.27;;;3.47;;
23129;SDS011;11734;51.046;13.778;2023-04-25T05:12:02;4.80;;;4.00;;
23129;SDS011;11734;51.046;13.778;2023-04-25T05:14:49;5.47;;;3.37;;
23129;SDS011;11734;51.046;13.778;2023-04-25T05:17:28;4.77;;;3.83;;
23129;SDS011;11734;51.046;13.778;2023-04-25T05:20:21;4.33;;;3.93;;
23129;SDS011;11734;51.046;13.778;2023-04-25T05:22:48;4.53;;;3.83;;
23129;SDS011;11734;51.046;13.778;2023-04-25T05:25:29;4.60;;;3.90;;
23129;SDS011;11734;51.046;13.778;2023-04-25T05:28:03;5.17;;;3.50;;
23129;SDS011;11734;51.046;13.778;2023-04-25T05:30:50;4.20;;;3.80;;
23129;SDS011;11734;51.046;13.778;2023-04-25T05:33:24;4.17;;;3.73;;
23129;SDS011;11734;51.046;13.778;2023-04-25T05:35:52;6.77;;;4.13;;
23129;SDS011;11734;51.046;13.778;2023-04-25T05:38:20;5.43;;;4.00;;
23129;SDS011;11734;51.046;13.778;2023-04-25T05:41:02;6.37;;;3.70;;
23129;SDS011;11734;51.046;13.778;2023-04-25T05:43:49;3.80;;;3.47;;
23129;SDS011;11734;51.046;13.778;2023-04-25T05:46:36;4.63;;;3.77;;
23129;SDS011;11734;51.046;13.778;2023-04-25T05:49:23;4.67;;;3.47;;
23129;SDS011;11734;51.046;13.778;2023-04-25T05:52:23;5.00;;;3.63;;
23129;SDS011;11734;51.046;13.778;2023-04-25T05:55:04;4.80;;;3.67;;
23129;SDS011;11734;51.046;13.778;2023-04-25T05:57:32;5.40;;;3.70;;
23129;SDS011;11734;51.046;13.778;2023-04-25T05:59:59;5.67;;;3.90;;
23129;SDS011;11734;51.046;13.778;2023-04-25T06:02:46;4.40;;;3.80;;
23129;SDS011;11734;51.046;13.778;2023-04-25T06:05:14;4.40;;;4.00;;
23129;SDS011;11734;51.046;13.778;2023-04-25T06:07:42;3.73;;;3.33;;
23129;SDS011;11734;51.046;13.778;2023-04-25T06:10:09;4.50;;;3.63;;
23129;SDS011;11734;51.046;13.778;2023-04-25T06:12:37;4.17;;;3.30;;
23129;SDS011;11734;51.046;13.778;2023-04-25T06:15:05;4.87;;;3.97;;
23129;SDS011;11734;51.046;13.778;2023-04-25T06:17:52;3.90;;;3.40;;
23129;SDS011;11734;51.046;13.778;2023-04-25T06:20:19;5.03;;;3.80;;
23129;SDS011;11734;51.046;13.778;2023-04-25T06:22:50;5.63;;;3.63;;
23129;SDS011;11734;51.046;13.778;2023-04-25T06:25:20;5.23;;;4.07;;
23129;SDS011;11734;51.046;13.778;2023-04-25T06:27:48;4.27;;;3.67;;
23129;SDS011;11734;51.046;13.778;2023-04-25T06:30:15;4.13;;;3.63;;
23129;SDS011;11734;51.046;13.778;2023-04-25T06:32:51;4.63;;;3.73;;
23129;SDS011;11734;51.046;13.778;2023-04-25T06:35:19;5.23;;;4.10;;
23129;SDS011;11734;51.046;13.778;2023-04-25T06:37:52;5.63;;;3.90;;
23129;SDS011;11734;51.046;13.778;2023-04-25T06:40:21;4.33;;;3.47;;
23129;SDS011;11734;51.046;13.778;2023-04-25T06:42:49;5.43;;;4.37;;
23129;SDS011;11734;51.046;13.778;2023-04-25T06:45:32;4.57;;;3.60;;
23129;SDS011;11734;51.046;13.778;2023-04-25T06:48:02;5.37;;;4.00;;
23129;SDS011;11734;51.046;13.778;2023-04-25T06:50:30;6.77;;;3.50;;
23129;SDS011;11734;51.046;13.778;2023-04-25T06:52:59;4.10;;;3.40;;
23129;SDS011;11734;51.046;13.778;2023-04-25T06:55:31;3.67;;;3.33;;
23129;SDS011;11734;51.046;13.778;2023-04-25T06:58:18;5.53;;;3.70;;
23129;SDS011;11734;51.046;13.778;2023-04-25T07:01:05;6.03;;;3.20;;
23129;SDS011;11734;51.046;13.778;2023-04-25T07:03:33;5.60;;;3.30;;
23129;SDS011;11734;51.046;13.778;2023-04-25T07:06:06;6.00;;;3.73;;
23129;SDS011;11734;51.046;13.778;2023-04-25T07:08:33;4.87;;;3.43;;
23129;SDS011;11734;51.046;13.778;2023-04-25T07:11:01;4.20;;;3.80;;
23129;SDS011;11734;51.046;13.778;2023-04-25T07:13:28;5.80;;;3.83;;
23129;SDS011;11734;51.046;13.778;2023-04-25T07:15:56;4.97;;;3.50;;
23129;SDS011;11734;51.046;13.778;2023-04-25T07:18:26;5.27;;;3.80;;
23129;SDS011;11734;51.046;13.778;2023-04-25T07:20:53;3.80;;;3.33;;
23129;SDS011;11734;51.046;13.778;2023-04-25T07:23:21;5.97;;;3.17;;
23129;SDS011;11734;51.046;13.778;2023-04-25T07:25:49;3.47;;;3.17;;
23129;SDS011;11734;51.046;13.778;2023-04-25T07:28:20;4.40;;;3.30;;
23129;SDS011;11734;51.046;13.778;2023-04-25T07:30:47;5.07;;;3.03;;
23129;SDS011;11734;51.046;13.778;2023-04-25T07:33:16;3.43;;;3.13;;
23129;SDS011;11734;51.046;13.778;2023-04-25T07:35:46;3.57;;;3.20;;
23129;SDS011;11734;51.046;13.778;2023-04-25T07:38:13;4.13;;;3.47;;
23129;SDS011;11734;51.046;13.778;2023-04-25T07:40:41;3.53;;;3.00;;
23129;SDS011;11734;51.046;13.778;2023-04-25T07:43:10;3.97;;;3.23;;
23129;SDS011;11734;51.046;13.778;2023-04-25T07:45:57;5.23;;;3.93;;
23129;SDS011;11734;51.046;13.778;2023-04-25T07:48:27;5.83;;;3.63;;
23129;SDS011;11734;51.046;13.778;2023-04-25T07:50:55;5.80;;;3.67;;
23129;SDS011;11734;51.046;13.778;2023-04-25T07:53:22;4.53;;;3.50;;
23129;SDS011;11734;51.046;13.778;2023-04-25T07:55:55;3.43;;;3.13;;
23129;SDS011;11734;51.046;13.778;2023-04-25T07:58:22;3.57;;;3.20;;
23129;SDS011;11734;51.046;13.778;2023-04-25T08:00:53;3.40;;;3.10;;
23129;SDS011;11734;51.046;13.778;2023-04-25T08:03:43;3.20;;;2.90;;
23129;SDS011;11734;51.046;13.778;2023-04-25T08:06:21;3.60;;;2.90;;
23129;SDS011;11734;51.046;13.778;2023-04-25T08:08:58;6.63;;;3.13;;
23129;SDS011;11734;51.046;13.778;2023-04-25T08:11:33;4.23;;;2.93;;
23129;SDS011;11734;51.046;13.778;2023-04-25T08:14:00;2.77;;;2.40;;
23129;SDS011;11734;51.046;13.778;2023-04-25T08:16:28;2.90;;;2.67;;
23129;SDS011;11734;51.046;13.778;2023-04-25T08:18:56;2.57;;;2.37;;
23129;SDS011;11734;51.046;13.778;2023-04-25T08:21:24;3.00;;;2.80;;
23129;SDS011;11734;51.046;13.778;2023-04-25T08:23:55;2.77;;;2.37;;
23129;SDS011;11734;51.046;13.778;2023-04-25T08:26:28;2.70;;;2.50;;
23129;SDS011;11734;51.046;13.778;2023-04-25T08:28:56;4.70;;;2.47;;
23129;SDS011;11734;51.046;13.778;2023-04-25T08:31:24;2.73;;;2.33;;
23129;SDS011;11734;51.046;13.778;2023-04-25T08:33:58;2.93;;;2.50;;
23129;SDS011;11734;51.046;13.778;2023-04-25T08:36:31;2.50;;;2.30;;
23129;SDS011;11734;51.046;13.778;2023-04-25T08:39:16;2.37;;;2.17;;
23129;SDS011;11734;51.046;13.778;2023-04-25T08:41:59;3.30;;;2.17;;
23129;SDS011;11734;51.046;13.778;2023-04-25T08:44:28;2.77;;;2.10;;
23129;SDS011;11734;51.046;13.778;2023-04-25T08:46:56;2.30;;;2.10;;
23129;SDS011;11734;51.046;13.778;2023-04-25T08:49:27;2.93;;;2.27;;
23129;SDS011;11734;51.046;13.778;2023-04-25T08:51:55;3.47;;;2.60;;
23129;SDS011;11734;51.046;13.778;2023-04-25T08:54:25;5.63;;;2.90;;
23129;SDS011;11734;51.046;13.778;2023-04-25T08:57:02;2.53;;;2.13;;
23129;SDS011;11734;51.046;13.778;2023-04-25T08:59:31;3.23;;;2.40;;
23129;SDS011;11734;51.046;13.778;2023-04-25T09:02:00;2.97;;;2.60;;
23129;SDS011;11734;51.046;13.778;2023-04-25T09:04:31;3.50;;;2.83;;
23129;SDS011;11734;51.046;13.778;2023-04-25T09:06:58;3.30;;;2.93;;
23129;SDS011;11734;51.046;13.778;2023-04-25T09:09:26;3.07;;;2.53;;
23129;SDS011;11734;51.046;13.778;2023-04-25T09:11:54;3.33;;;2.90;;
23129;SDS011;11734;51.046;13.778;2023-04-25T09:14:23;3.30;;;2.63;;
23129;SDS011;11734;51.046;13.778;2023-04-25T09:17:17;3.10;;;2.77;;
23129;SDS011;11734;51.046;13.778;2023-04-25T09:19:47;3.10;;;2.83;;
23129;SDS011;11734;51.046;13.778;2023-04-25T09:22:22;3.97;;;3.30;;
23129;SDS011;11734;51.046;13.778;2023-04-25T09:24:50;3.67;;;3.33;;
23129;SDS011;11734;51.046;13.778;2023-04-25T09:27:20;4.53;;;3.33;;
23129;SDS011;11734;51.046;13.778;2023-04-25T09:30:10;4.03;;;3.10;;
23129;SDS011;11734;51.046;13.778;2023-04-25T09:32:50;3.77;;;3.47;;
23129;SDS011;11734;51.046;13.778;2023-04-25T09:35:24;3.27;;;3.07;;
23129;SDS011;11734;51.046;13.778;2023-04-25T09:37:58;4.00;;;3.00;;
23129;SDS011;11734;51.046;13.778;2023-04-25T09:40:48;4.00;;;2.60;;
23129;SDS011;11734;51.046;13.778;2023-04-25T09:43:24;3.30;;;3.00;;
23129;SDS011;11734;51.046;13.778;2023-04-25T09:45:54;4.40;;;3.50;;
23129;SDS011;11734;51.046;13.778;2023-04-25T09:48:26;4.13;;;3.73;;
23129;SDS011;11734;51.046;13.778;2023-04-25T09:51:05;4.30;;;3.47;;
23129;SDS011;11734;51.046;13.778;2023-04-25T09:53:34;7.20;;;3.87;;
23129;SDS011;11734;51.046;13.778;2023-04-25T09:56:13;4.20;;;3.70;;
23129;SDS011;11734;51.046;13.778;2023-04-25T09:58:41;4.30;;;3.90;;
23129;SDS011;11734;51.046;13.778;2023-04-25T10:01:10;3.47;;;3.17;;
23129;SDS011;11734;51.046;13.778;2023-04-25T10:03:53;4.07;;;3.67;;
23129;SDS011;11734;51.046;13.778;2023-04-25T10:06:37;5.13;;;4.10;;
23129;SDS011;11734;51.046;13.778;2023-04-25T10:09:05;6.50;;;4.70;;
23129;SDS011;11734;51.046;13.778;2023-04-25T10:11:34;4.67;;;4.27;;
23129;SDS011;11734;51.046;13.778;2023-04-25T10:14:02;5.30;;;3.87;;
23129;SDS011;11734;51.046;13.778;2023-04-25T10:16:30;3.53;;;3.20;;
23129;SDS011;11734;51.046;13.778;2023-04-25T10:18:57;5.30;;;3.30;;
23129;SDS011;11734;51.046;13.778;2023-04-25T10:21:25;3.77;;;3.47;;
23129;SDS011;11734;51.046;13.778;2023-04-25T10:23:53;4.20;;;3.80;;
23129;SDS011;11734;51.046;13.778;2023-04-25T10:26:20;3.50;;;3.20;;
23129;SDS011;11734;51.046;13.778;2023-04-25T10:28:55;2.97;;;2.77;;
23129;SDS011;11734;51.046;13.778;2023-04-25T10:31:23;3.07;;;2.87;;
23129;SDS011;11734;51.046;13.778;2023-04-25T10:33:50;4.30;;;3.10;;
23129;SDS011;11734;51.046;13.778;2023-04-25T10:36:19;4.20;;;3.53;;
23129;SDS011;11734;51.046;13.778;2023-04-25T10:38:47;3.83;;;3.47;;
23129;SDS011;11734;51.046;13.778;2023-04-25T10:41:19;3.27;;;3.03;;
23129;SDS011;11734;51.046;13.778;2023-04-25T10:43:47;4.57;;;3.33;;
23129;SDS011;11734;51.046;13.778;2023-04-25T10:46:22;3.53;;;3.07;;
23129;SDS011;11734;51.046;13.778;2023-04-25T10:48:50;4.27;;;3.23;;
23129;SDS011;11734;51.046;13.778;2023-04-25T10:53:46;4.20;;;3.00;;
23129;SDS011;11734;51.046;13.778;2023-04-25T10:56:18;3.10;;;2.70;;
23129;SDS011;11734;51.046;13.778;2023-04-25T10:58:47;3.60;;;3.27;;
23129;SDS011;11734;51.046;13.778;2023-04-25T11:01:21;4.83;;;3.63;;
23129;SDS011;11734;51.046;13.778;2023-04-25T11:03:48;4.70;;;4.03;;
23129;SDS011;11734;51.046;13.778;2023-04-25T11:08:48;5.80;;;3.40;;
23129;SDS011;11734;51.046;13.778;2023-04-25T11:11:17;4.43;;;3.53;;
23129;SDS011;11734;51.046;13.778;2023-04-25T11:13:51;5.57;;;4.20;;
23129;SDS011;11734;51.046;13.778;2023-04-25T11:16:18;5.83;;;3.90;;
23129;SDS011;11734;51.046;13.778;2023-04-25T11:18:53;4.23;;;3.73;;
23129;SDS011;11734;51.046;13.778;2023-04-25T11:21:27;4.50;;;3.40;;
23129;SDS011;11734;51.046;13.778;2023-04-25T11:23:58;5.03;;;3.60;;
23129;SDS011;11734;51.046;13.778;2023-04-25T11:26:29;5.60;;;3.90;;
23129;SDS011;11734;51.046;13.778;2023-04-25T11:28:57;5.47;;;3.60;;
23129;SDS011;11734;51.046;13.778;2023-04-25T11:31:29;5.77;;;3.60;;
23129;SDS011;11734;51.046;13.778;2023-04-25T11:33:56;4.00;;;3.10;;
23129;SDS011;11734;51.046;13.778;2023-04-25T11:36:24;4.70;;;2.97;;
23129;SDS011;11734;51.046;13.778;2023-04-25T11:38:52;2.30;;;2.03;;
23129;SDS011;11734;51.046;13.778;2023-04-25T11:41:20;4.33;;;2.50;;
23129;SDS011;11734;51.046;13.778;2023-04-25T11:43:48;3.13;;;2.53;;
23129;SDS011;11734;51.046;13.778;2023-04-25T11:46:19;2.70;;;2.50;;
23129;SDS011;11734;51.046;13.778;2023-04-25T11:48:47;2.40;;;2.20;;
23129;SDS011;11734;51.046;13.778;2023-04-25T11:51:17;2.67;;;2.27;;
23129;SDS011;11734;51.046;13.778;2023-04-25T11:53:45;1.90;;;1.80;;
23129;SDS011;11734;51.046;13.778;2023-04-25T11:56:12;2.63;;;1.90;;
23129;SDS011;11734;51.046;13.778;2023-04-25T11:58:56;3.63;;;2.43;;
23129;SDS011;11734;51.046;13.778;2023-04-25T12:04:17;1.70;;;1.60;;
23129;SDS011;11734;51.046;13.778;2023-04-25T12:06:45;1.80;;;1.70;;
23129;SDS011;11734;51.046;13.778;2023-04-25T12:09:14;2.23;;;1.87;;
23129;SDS011;11734;51.046;13.778;2023-04-25T12:11:57;3.13;;;1.80;;
23129;SDS011;11734;51.046;13.778;2023-04-25T12:14:25;3.37;;;2.13;;
23129;SDS011;11734;51.046;13.778;2023-04-25T12:16:57;3.43;;;2.00;;
23129;SDS011;11734;51.046;13.778;2023-04-25T12:19:25;2.37;;;1.90;;
23129;SDS011;11734;51.046;13.778;2023-04-25T12:21:52;2.40;;;2.00;;
23129;SDS011;11734;51.046;13.778;2023-04-25T12:24:25;4.37;;;2.60;;
23129;SDS011;11734;51.046;13.778;2023-04-25T12:29:24;3.73;;;2.27;;
23129;SDS011;11734;51.046;13.778;2023-04-25T12:31:58;2.93;;;2.00;;
23129;SDS011;11734;51.046;13.778;2023-04-25T12:34:26;3.13;;;2.00;;
23129;SDS011;11734;51.046;13.778;2023-04-25T12:36:53;3.73;;;2.00;;
23129;SDS011;11734;51.046;13.778;2023-04-25T12:39:21;3.57;;;2.60;;
23129;SDS011;11734;51.046;13.778;2023-04-25T12:41:49;2.50;;;2.20;;
23129;SDS011;11734;51.046;13.778;2023-04-25T12:44:17;2.83;;;2.20;;
23129;SDS011;11734;51.046;13.778;2023-04-25T12:46:44;7.87;;;2.70;;
23129;SDS011;11734;51.046;13.778;2023-04-25T12:49:11;3.23;;;2.40;;
23129;SDS011;11734;51.046;13.778;2023-04-25T12:51:42;3.53;;;2.40;;
23129;SDS011;11734;51.046;13.778;2023-04-25T12:54:09;5.97;;;2.67;;
23129;SDS011;11734;51.046;13.778;2023-04-25T12:56:37;4.03;;;2.50;;
23129;SDS011;11734;51.046;13.778;2023-04-25T12:59:04;5.90;;;2.87;;
23129;SDS011;11734;51.046;13.778;2023-04-25T13:01:32;4.50;;;2.60;;
23129;SDS011;11734;51.046;13.778;2023-04-25T13:04:01;2.40;;;2.20;;
23129;SDS011;11734;51.046;13.778;2023-04-25T13:06:29;4.43;;;2.73;;
23129;SDS011;11734;51.046;13.778;2023-04-25T13:08:57;5.17;;;3.07;;
23129;SDS011;11734;51.046;13.778;2023-04-25T13:11:24;4.27;;;2.90;;
23129;SDS011;11734;51.046;13.778;2023-04-25T13:13:52;4.63;;;2.83;;
23129;SDS011;11734;51.046;13.778;2023-04-25T13:16:20;4.77;;;2.87;;
23129;SDS011;11734;51.046;13.778;2023-04-25T13:18:48;2.80;;;2.43;;
23129;SDS011;11734;51.046;13.778;2023-04-25T13:21:15;4.30;;;2.70;;
23129;SDS011;11734;51.046;13.778;2023-04-25T13:23:42;5.43;;;3.30;;
23129;SDS011;11734;51.046;13.778;2023-04-25T13:26:10;4.33;;;2.63;;
23129;SDS011;11734;51.046;13.778;2023-04-25T13:28:38;3.80;;;3.00;;
23129;SDS011;11734;51.046;13.778;2023-04-25T13:31:10;5.73;;;2.90;;
23129;SDS011;11734;51.046;13.778;2023-04-25T13:33:37;4.80;;;2.80;;
23129;SDS011;11734;51.046;13.778;2023-04-25T13:36:05;6.43;;;3.53;;
23129;SDS011;11734;51.046;13.778;2023-04-25T13:38:33;5.10;;;2.70;;
23129;SDS011;11734;51.046;13.778;2023-04-25T13:41:00;6.90;;;3.00;;
23129;SDS011;11734;51.046;13.778;2023-04-25T13:43:30;4.83;;;3.00;;
23129;SDS011;11734;51.046;13.778;2023-04-25T13:46:00;5.43;;;2.60;;
23129;SDS011;11734;51.046;13.778;2023-04-25T13:48:27;5.50;;;2.97;;
23129;SDS011;11734;51.046;13.778;2023-04-25T13:50:54;6.47;;;2.73;;
23129;SDS011;11734;51.046;13.778;2023-04-25T13:53:22;3.87;;;2.40;;
23129;SDS011;11734;51.046;13.778;2023-04-25T13:55:50;2.60;;;1.97;;
23129;SDS011;11734;51.046;13.778;2023-04-25T13:58:18;3.83;;;2.40;;
23129;SDS011;11734;51.046;13.778;2023-04-25T14:00:46;4.43;;;2.63;;
23129;SDS011;11734;51.046;13.778;2023-04-25T14:03:15;6.40;;;2.70;;
23129;SDS011;11734;51.046;13.778;2023-04-25T14:05:42;5.63;;;2.67;;
23129;SDS011;11734;51.046;13.778;2023-04-25T14:08:10;6.73;;;2.93;;
23129;SDS011;11734;51.046;13.778;2023-04-25T14:10:37;7.93;;;2.50;;
23129;SDS011;11734;51.046;13.778;2023-04-25T14:13:05;3.80;;;2.73;;
23129;SDS011;11734;51.046;13.778;2023-04-25T14:15:36;7.93;;;2.90;;
23129;SDS011;11734;51.046;13.778;2023-04-25T14:18:03;4.63;;;2.60;;
23129;SDS011;11734;51.046;13.778;2023-04-25T14:20:31;7.27;;;2.87;;
23129;SDS011;11734;51.046;13.778;2023-04-25T14:22:59;5.60;;;3.03;;
23129;SDS011;11734;51.046;13.778;2023-04-25T14:25:27;3.33;;;2.77;;
23129;SDS011;11734;51.046;13.778;2023-04-25T14:27:54;4.67;;;2.80;;
23129;SDS011;11734;51.046;13.778;2023-04-25T14:30:21;3.20;;;2.40;;
23129;SDS011;11734;51.046;13.778;2023-04-25T14:32:49;4.40;;;3.17;;
23129;SDS011;11734;51.046;13.778;2023-04-25T14:35:16;4.20;;;2.47;;
23129;SDS011;11734;51.046;13.778;2023-04-25T14:37:44;3.13;;;2.63;;
23129;SDS011;11734;51.046;13.778;2023-04-25T14:40:11;4.73;;;3.10;;
23129;SDS011;11734;51.046;13.778;2023-04-25T14:42:39;7.90;;;2.67;;
23129;SDS011;11734;51.046;13.778;2023-04-25T14:45:07;4.47;;;3.00;;
23129;SDS011;11734;51.046;13.778;2023-04-25T14:47:38;3.23;;;2.57;;
23129;SDS011;11734;51.046;13.778;2023-04-25T14:50:06;4.53;;;2.70;;
23129;SDS011;11734;51.046;13.778;2023-04-25T14:52:34;5.27;;;3.10;;
23129;SDS011;11734;51.046;13.778;2023-04-25T14:55:02;3.67;;;2.83;;
23129;SDS011;11734;51.046;13.778;2023-04-25T14:57:33;5.67;;;3.17;;
23129;SDS011;11734;51.046;13.778;2023-04-25T15:00:01;3.50;;;2.40;;
23129;SDS011;11734;51.046;13.778;2023-04-25T15:02:31;6.30;;;2.80;;
23129;SDS011;11734;51.046;13.778;2023-04-25T15:04:58;4.03;;;2.20;;